Lähimpiä lentokenttien sääasemia

 

EFHK - Helsinki/Vantaa, Finland
Ilmasuunta ja etäisyys Sääasema Lakkasuosta: IKO 25km
Päivitetty: 22/10/2017 23:20
Selkeätä
Selkeätä
 Tuulen suunta PLU
Tuuli: PLU 4 km/h
Lämpötila: 0°C
Kastepiste: -1°C
Kosteus: 93%
Ilmanpaine: 1020 hPa
Yhteenveto: Selkeätä
Näkyvyys: enemmän kuin 10 km
2017/10/22 20:20 EFHK 222020Z 33002KT CAVOK M00/M01 Q1020 NOSIG
EFHF - Helsinki/Malmi, Finland
Ilmasuunta ja etäisyys Sääasema Lakkasuosta: I 29km
Päivitetty: 06/03/2017 17:50
NOT Current
Selkeätä
Selkeätä
 Tuulen suunta KO
Tuuli: KO 11 km/h
Lämpötila: -2°C
Hyytävyys: -6°C
Kastepiste: -11°C
Kosteus: 51%
Ilmanpaine: 1021 hPa
Yhteenveto: Selkeätä
Näkyvyys: enemmän kuin 10 km
2017/03/06 15:50 EFHF 061550Z 04006KT 330V100 CAVOK M02/M11 Q1021
 
EETN - Tallinn, Estonia
Ilmasuunta ja etäisyys Sääasema Lakkasuosta: E 97km
Päivitetty: 22/10/2017 23:20
Heikkoa sadetta, Showers, Vaihtelevaa
Heikkoa sadetta, Showers, Vaihtelevaa
 Tuulen suunta varies
Tuuli: varies 4 km/h
Lämpötila: 1°C
Kastepiste: 1°C
Kosteus: 100%
Ilmanpaine: 1020 hPa
Yhteenveto: Heikkoa sadetta, Showers
Pilvet: Vaihtelevaa
Näkyvyys: 9 km
Pilvitiedot: Osittain pilvistä 610 m
Vaihtelevaa 1189 m
2017/10/22 20:20 EETN 222020Z VRB02KT 9000 -SHRA FEW020CB OVC039 01/01 Q1020 NOSIG
EFTU - Turku/Abo, Finland
Ilmasuunta ja etäisyys Sääasema Lakkasuosta: LLU 127km
Päivitetty: 22/10/2017 23:20
Selkeätä
Selkeätä
 Tuulen suunta P
Tuuli: P 4 km/h
Lämpötila: 0°C
Kastepiste: -1°C
Kosteus: 93%
Ilmanpaine: 1021 hPa
Pilvet: Selkeätä
Näkyvyys: 7 km
2017/10/22 20:20 EFTU 222020Z AUTO 01002KT 7000 NCD M00/M01 Q1021
 
EFTP - Tampere/Pirkkala, Finland
Ilmasuunta ja etäisyys Sääasema Lakkasuosta: PLU 138km
Päivitetty: 22/10/2017 23:20
Enimmäkseen pilvistä
Enimmäkseen pilvistä
 Tuulen suunta PKO
Tuuli: PKO 7 km/h
Lämpötila: 1°C
Hyytävyys: -2°C
Kastepiste: 0°C
Kosteus: 93%
Ilmanpaine: 1021 hPa
Pilvet: Enimmäkseen pilvistä
Näkyvyys: 10 km
Pilvitiedot: Osittain pilvistä 396 m
Puolipilvistä 640 m
Enimmäkseen pilvistä 1463 m
2017/10/22 20:20 EFTP 222020Z AUTO 02004KT 9999 FEW013 SCT021 BKN048/// 01/00 Q1021
EFPO - Pori (mil/Civ), Finland
Ilmasuunta ja etäisyys Sääasema Lakkasuosta: LU 199km
Päivitetty: 22/10/2017 23:20
Vaihtelevaa
Vaihtelevaa
 Tuulen suunta PLU
Tuuli: PLU 2 km/h
Lämpötila: 1°C
Kastepiste: 0°C
Kosteus: 93%
Ilmanpaine: 1022 hPa
Pilvet: Vaihtelevaa
Näkyvyys: 10 km
Pilvitiedot: Vaihtelevaa 1463 m
2017/10/22 20:20 EFPO 222020Z AUTO 33001KT 9999 OVC048/// 01/00 Q1022
 
EFLP - Lappeenranta, Finland
Ilmasuunta ja etäisyys Sääasema Lakkasuosta: IKO 216km
Päivitetty: 22/10/2017 23:20
Selkeätä
Selkeätä
 Tuulen suunta KO
Tuuli: KO 7 km/h
Lämpötila: 0°C
Hyytävyys: -3°C
Kastepiste: -2°C
Kosteus: 87%
Ilmanpaine: 1020 hPa
Yhteenveto: Selkeätä
Näkyvyys: enemmän kuin 10 km
2017/10/22 20:20 EFLP 222020Z AUTO 05004KT CAVOK M00/M02 Q1020
EFMI - Mikkeli, Finland
Ilmasuunta ja etäisyys Sääasema Lakkasuosta: KO 220km
Päivitetty: 22/10/2017 23:20
Selkeätä
Selkeätä
 Tuulen suunta varies
Tuuli: varies 4 km/h
Lämpötila: 0°C
Kastepiste: 0°C
Kosteus: 100%
Ilmanpaine: 1021 hPa
Yhteenveto: Selkeätä
Näkyvyys: enemmän kuin 10 km
2017/10/22 20:20 EFMI 222020Z AUTO VRB02KT CAVOK 00/M00 Q1021
 
EFJY - Jyvaskyla (mil/C, Finland
Ilmasuunta ja etäisyys Sääasema Lakkasuosta: PKO 245km
Päivitetty: 22/10/2017 23:20
Osittain pilvistä
Osittain pilvistä
 Tuulen suunta PKO
Tuuli: PKO 6 km/h
Lämpötila: -1°C
Kastepiste: -1°C
Kosteus: 100%
Ilmanpaine: 1021 hPa
Pilvet: Osittain pilvistä
Näkyvyys: 10 km
Pilvitiedot: Osittain pilvistä 213 m
2017/10/22 20:20 EFJY 222020Z AUTO 02003KT 9999 FEW007 M01/M01 Q1021
EFMA - Mariehamn/Aland, Finland
Ilmasuunta ja etäisyys Sääasema Lakkasuosta: L 257km
Päivitetty: 22/10/2017 23:20
Osittain pilvistä
Osittain pilvistä
 Tuulen suunta IKO
Tuuli: IKO 11 km/h
Lämpötila: 4°C
Hyytävyys: 1°C
Kastepiste: -2°C
Kosteus: 65%
Ilmanpaine: 1020 hPa
Pilvet: Osittain pilvistä
Näkyvyys: 10 km
Pilvitiedot: Osittain pilvistä 853 m
2017/10/22 20:20 EFMA 222020Z AUTO 07006KT 020V140 9999 FEW028 04/M02 Q1020
 
EFVR - Varkaus, Finland
Ilmasuunta ja etäisyys Sääasema Lakkasuosta: KO 277km
Päivitetty: 15/04/2016 08:50
NOT Current
Selkeätä
Selkeätä
 Tuulen suunta PLU
Tuuli: PLU 15 km/h
Lämpötila: -1°C
Hyytävyys: -6°C
Kastepiste: -8°C
Kosteus: 59%
Ilmanpaine: 1005 hPa
Yhteenveto: Selkeätä
Näkyvyys: enemmän kuin 10 km
2016/04/15 05:50 EFVR 150550Z AUTO 33008KT CAVOK M01/M08 Q1005
EFSI - Seinajoki-Ilmajo, Finland
Ilmasuunta ja etäisyys Sääasema Lakkasuosta: PLU 285km
Päivitetty: 22/10/2017 23:20
Selkeätä
Selkeätä
 Tuulen suunta KO
Tuuli: KO 2 km/h
Lämpötila: 1°C
Kastepiste: 0°C
Kosteus: 93%
Ilmanpaine: 1022 hPa
Yhteenveto: Selkeätä
Näkyvyys: enemmän kuin 10 km
2017/10/22 20:20 EFSI 222020Z AUTO 04001KT CAVOK 01/00 Q1022
 
KSJC - San Jose, California, USA
Ilmasuunta ja etäisyys Sääasema Lakkasuosta: PLU 8758km
Päivitetty: 22/10/2017 22:53
Selkeätä
Selkeätä
 Tuulen suunta varies
Tuuli: varies 9 km/h
Lämpötila: 21°C
Kastepiste: 12°C
Kosteus: 57%
Ilmanpaine: 1027.1 hPa
Pilvet: Selkeätä
Näkyvyys: 16 km
2017/10/22 19:53 KSJC 221953Z VRB05KT 10SM CLR 21/12 A3033 RMK AO2 SLP270 T02060117